Time;durP1;ratioP1;P1;durP2;ratioP2;P2;SDS_P1;SDS_P2;PMS_P1;PMS_P2;Temp;Humidity;BMP_temperature;BMP_pressure;BME280_temperature;BME280_humidity;BME280_pressure;Samples;Min_cycle;Max_cycle;Signal;HPM_P1;HPM_P2
2022/06/23 00:00:08;;;;;;;8.65;4.32;;;;;;;21.36;42.94;101131.50;4898337;28;119431;-65
2022/06/23 00:02:38;;;;;;;5.95;3.80;;;;;;;21.34;43.04;101141.56;4898448;28;118785;-64
2022/06/23 00:05:16;;;;;;;8.85;4.53;;;;;;;21.31;42.87;101136.47;4901909;28;123021;-64
2022/06/23 00:07:48;;;;;;;10.93;4.63;;;;;;;21.29;43.04;101133.06;4899765;28;124945;-64
2022/06/23 00:10:47;;;;;;;6.65;4.32;;;;;;;21.24;43.16;101127.19;4900613;28;119120;-64
2022/06/23 00:13:22;;;;;;;8.20;4.20;;;;;;;21.17;43.59;101125.03;4864845;28;119630;-64
2022/06/23 00:15:51;;;;;;;8.77;4.80;;;;;;;21.13;43.57;101118.19;4904906;28;123893;-65
2022/06/23 00:18:24;;;;;;;9.50;5.10;;;;;;;21.09;43.93;101108.66;4903288;28;124094;-64
2022/06/23 00:20:58;;;;;;;9.98;5.63;;;;;;;21.06;44.48;101117.00;4922391;28;118724;-65
2022/06/23 00:23:30;;;;;;;7.10;4.78;;;;;;;21.03;44.61;101117.25;4899690;28;119514;-65
2022/06/23 00:26:10;;;;;;;13.10;5.22;;;;;;;21.03;44.74;101119.13;4897608;28;123885;-65
2022/06/23 00:28:47;;;;;;;8.98;4.72;;;;;;;21.02;44.99;101120.09;4901815;28;124322;-64
2022/06/23 00:31:35;;;;;;;8.93;5.70;;;;;;;21.00;45.02;101122.91;4911910;28;118675;-65
2022/06/23 00:34:15;;;;;;;9.23;5.25;;;;;;;20.97;45.24;101123.19;4896413;28;119241;-65
2022/06/23 00:36:53;;;;;;;9.50;4.97;;;;;;;20.95;45.18;101114.38;4893986;28;124088;-65
2022/06/23 00:39:35;;;;;;;11.75;5.35;;;;;;;20.92;45.60;101104.69;4896782;28;124690;-65
2022/06/23 00:42:21;;;;;;;10.40;5.15;;;;;;;20.89;45.85;101104.09;4922285;28;119446;-65
2022/06/23 00:45:00;;;;;;;;;;;;;;;20.84;44.33;101106.34;4894491;28;120183;-65
2022/06/23 00:47:37;;;;;;;9.95;5.20;;;;;;;20.83;45.40;101110.84;4896226;28;124187;-65
2022/06/23 00:50:29;;;;;;;9.63;5.32;;;;;;;20.80;45.51;101111.97;4893389;28;124350;-64
2022/06/23 00:53:22;;;;;;;8.50;5.60;;;;;;;20.76;45.88;101110.53;4900913;28;119325;-65
2022/06/23 00:55:55;;;;;;;10.13;5.75;;;;;;;20.73;46.21;101116.16;4893254;28;118963;-66
2022/06/23 00:58:56;;;;;;;8.77;5.47;;;;;;;20.68;46.54;101120.22;4906080;28;122945;-65
2022/06/23 01:01:37;;;;;;;9.70;5.22;;;;;;;20.62;46.59;101129.66;4899030;28;123740;-65
2022/06/23 01:04:21;;;;;;;7.82;5.90;;;;;;;20.57;47.07;101115.72;4902317;28;119310;-64
2022/06/23 01:06:56;;;;;;;8.93;5.55;;;;;;;20.53;47.04;101108.88;4899789;28;119142;-65
2022/06/23 01:09:31;;;;;;;8.95;5.43;;;;;;;20.50;47.04;101114.53;4919920;28;122937;-64
2022/06/23 01:12:04;;;;;;;7.45;5.28;;;;;;;20.48;47.31;101108.41;4901591;28;124555;-65
2022/06/23 01:14:47;;;;;;;10.13;5.53;;;;;;;20.47;47.25;101114.75;4899267;28;119767;-65
2022/06/23 01:17:26;;;;;;;10.68;5.50;;;;;;;20.47;47.24;101101.31;4892981;28;119206;-65
2022/06/23 01:20:12;;;;;;;11.32;5.18;;;;;;;20.46;47.37;101102.31;4893112;28;124133;-65
2022/06/23 01:22:48;;;;;;;;;;;;;;;20.40;46.02;101099.13;4905012;28;122927;-65
2022/06/23 01:25:55;;;;;;;10.50;5.63;;;;;;;20.39;46.40;101102.78;4895185;28;119405;-65
2022/06/23 01:28:27;;;;;;;8.85;5.75;;;;;;;20.37;47.08;101091.31;4897948;28;119358;-65
2022/06/23 01:30:57;;;;;;;9.38;5.57;;;;;;;20.34;47.08;101083.50;4899100;28;124129;-65
2022/06/23 01:33:50;;;;;;;8.70;5.90;;;;;;;20.28;47.20;101084.00;4897711;28;124053;-65
2022/06/23 01:36:26;;;;;;;8.18;5.65;;;;;;;20.26;47.27;101085.97;4920384;28;120024;-65
2022/06/23 01:39:11;;;;;;;10.52;5.70;;;;;;;20.24;47.79;101082.53;4901239;28;119843;-65
2022/06/23 01:41:41;;;;;;;9.50;5.60;;;;;;;20.20;47.48;101087.31;4900558;28;123770;-65
2022/06/23 01:44:17;;;;;;;9.73;5.65;;;;;;;20.18;47.57;101091.13;4896980;28;124233;-65
2022/06/23 01:46:49;;;;;;;9.95;5.70;;;;;;;20.15;47.92;101089.53;4890876;28;120152;-64
2022/06/23 01:49:22;;;;;;;11.02;5.90;;;;;;;20.14;48.34;101076.22;4897922;28;119189;-65
2022/06/23 01:51:52;;;;;;;7.70;5.60;;;;;;;20.13;48.02;101090.63;4897562;28;124068;-66
2022/06/23 01:54:19;;;;;;;8.13;5.43;;;;;;;20.11;48.04;101092.59;4896314;28;123655;-66
2022/06/23 01:57:05;;;;;;;8.65;5.13;;;;;;;20.08;47.89;101082.06;4903544;28;119621;-66
2022/06/23 02:00:03;;;;;;;8.65;5.35;;;;;;;20.06;48.05;101081.34;4898899;28;118775;-65
2022/06/23 02:02:49;;;;;;;9.98;5.45;;;;;;;20.00;47.95;101086.28;4890439;28;124866;-65
2022/06/23 02:05:45;;;;;;;8.77;5.68;;;;;;;19.99;47.99;101084.53;4901583;28;124170;-66
2022/06/23 02:08:35;;;;;;;8.38;5.88;;;;;;;19.95;47.98;101083.09;4904106;28;119322;-66
2022/06/23 02:11:07;;;;;;;9.82;5.57;;;;;;;19.93;48.28;101085.06;4894554;28;119015;-66
2022/06/23 02:13:41;;;;;;;9.25;5.32;;;;;;;19.89;48.15;101083.59;4897722;28;124147;-65
2022/06/23 02:16:26;;;;;;;8.60;5.55;;;;;;;19.88;48.12;101092.63;4892339;28;124481;-65
2022/06/23 02:19:28;;;;;;;8.63;5.70;;;;;;;19.87;47.83;101092.75;4902311;28;118160;-66
2022/06/23 02:22:11;;;;;;;10.15;5.55;;;;;;;19.83;47.82;101084.06;4913217;28;119786;-66
2022/06/23 02:24:49;;;;;;;9.88;5.88;;;;;;;19.81;48.21;101091.41;4900018;28;124039;-65
2022/06/23 02:27:32;;;;;;;9.23;5.47;;;;;;;19.78;48.16;101097.88;4904420;28;124244;-66
2022/06/23 02:30:10;;;;;;;7.97;5.53;;;;;;;19.77;48.07;101095.31;4901661;28;119991;-66
2022/06/23 02:32:59;;;;;;;9.52;5.40;;;;;;;19.75;48.02;101099.97;4896527;28;120383;-65
2022/06/23 02:35:34;;;;;;;10.13;4.97;;;;;;;19.75;48.20;101102.66;4890645;28;122575;-65
2022/06/23 02:38:20;;;;;;;9.15;5.65;;;;;;;19.74;48.06;101101.81;4896069;28;123780;-65
2022/06/23 02:40:49;;;;;;;8.48;5.20;;;;;;;19.74;47.96;101095.56;4902723;28;120164;-65
2022/06/23 02:43:41;;;;;;;8.65;5.15;;;;;;;19.73;48.01;101093.84;4904029;28;119901;-65
2022/06/23 02:46:42;;;;;;;8.93;5.10;;;;;;;19.70;47.75;101096.75;4901184;28;123759;-65
2022/06/23 02:49:41;;;;;;;6.28;4.53;;;;;;;19.66;48.15;101082.69;4909511;28;122845;-65
2022/06/23 02:52:44;;;;;;;8.50;4.93;;;;;;;19.65;47.82;101081.84;4901897;28;119263;-65
2022/06/23 02:55:59;;;;;;;7.13;4.88;;;;;;;19.62;47.69;101071.34;4901411;28;118895;-65
2022/06/23 02:58:46;;;;;;;6.45;4.95;;;;;;;19.60;47.99;101067.91;4839508;28;126969;-65
2022/06/23 03:01:24;;;;;;;8.48;5.57;;;;;;;19.58;48.13;101077.94;4854927;28;123509;-65
2022/06/23 03:04:23;;;;;;;11.32;5.22;;;;;;;19.57;47.78;101083.41;4886431;28;119969;-65
2022/06/23 03:07:03;;;;;;;6.15;4.93;;;;;;;19.55;47.87;101075.50;4900206;28;118778;-66
2022/06/23 03:09:43;;;;;;;7.72;5.22;;;;;;;19.55;47.98;101070.13;4899646;28;124837;-65
2022/06/23 03:12:40;;;;;;;8.27;5.45;;;;;;;19.52;47.93;101065.00;4903147;28;124505;-66
2022/06/23 03:15:17;;;;;;;10.00;5.13;;;;;;;19.51;48.11;101082.06;4890695;28;119327;-65
2022/06/23 03:17:58;;;;;;;8.52;5.13;;;;;;;19.50;48.17;101088.44;4902950;28;118852;-65
2022/06/23 03:20:53;;;;;;;9.98;5.28;;;;;;;19.51;48.16;101073.16;4900333;28;124111;-65
2022/06/23 03:23:41;;;;;;;7.93;5.40;;;;;;;19.49;47.96;101070.59;4906444;28;122958;-65
2022/06/23 03:26:27;;;;;;;8.25;5.07;;;;;;;19.45;48.26;101058.41;4920590;28;119411;-65
2022/06/23 03:29:24;;;;;;;8.80;5.60;;;;;;;19.42;48.50;101059.50;4901959;28;119964;-65
2022/06/23 03:32:20;;;;;;;9.52;5.22;;;;;;;19.37;48.45;101064.38;4908160;28;122873;-66
2022/06/23 03:34:57;;;;;;;9.52;4.97;;;;;;;19.34;48.52;101061.06;4894087;28;124236;-66
2022/06/23 03:37:49;;;;;;;8.23;5.22;;;;;;;19.33;48.45;101070.13;4899736;28;119526;-66
2022/06/23 03:43:19;;;;;;;9.02;5.18;;;;;;;19.33;48.64;101075.50;4896045;28;124205;-66
2022/06/23 03:45:57;;;;;;;9.63;5.80;;;;;;;19.34;48.63;101066.44;4902786;28;123923;-65
2022/06/23 03:48:31;;;;;;;9.43;5.18;;;;;;;19.33;49.04;101056.69;4896610;28;119216;-65
2022/06/23 03:51:39;;;;;;;10.20;5.80;;;;;;;19.30;48.78;101071.19;4894717;28;119125;-65
2022/06/23 03:54:14;;;;;;;9.30;5.30;;;;;;;19.30;49.08;101059.59;4894687;28;124381;-65
2022/06/23 03:57:13;;;;;;;9.90;5.10;;;;;;;19.30;48.83;101071.19;4913979;28;123045;-65
2022/06/23 03:59:55;;;;;;;12.63;4.95;;;;;;;19.34;48.98;101066.44;4896678;28;119450;-65
2022/06/23 04:02:30;;;;;;;7.70;4.95;;;;;;;19.36;48.81;101070.72;4894472;28;120646;-65
2022/06/23 04:05:23;;;;;;;7.97;5.10;;;;;;;19.35;48.67;101063.66;4898387;28;123799;-66
2022/06/23 04:08:02;;;;;;;7.43;5.28;;;;;;;19.35;48.71;101063.66;4888536;28;124343;-65
2022/06/23 04:10:38;;;;;;;8.10;4.90;;;;;;;19.36;48.96;101059.13;4886813;28;118838;-66
2022/06/23 04:13:30;;;;;;;6.28;5.05;;;;;;;19.35;48.90;101060.13;4896236;28;117845;-66
2022/06/23 04:16:09;;;;;;;9.70;5.55;;;;;;;19.36;48.84;101069.84;4897699;28;125396;-65
2022/06/23 04:18:44;;;;;;;6.70;5.07;;;;;;;19.36;49.01;101068.03;4900517;28;124680;-65
2022/06/23 04:21:16;;;;;;;8.60;5.43;;;;;;;19.39;49.07;101075.84;4904889;28;119382;-65
2022/06/23 04:23:49;;;;;;;9.82;5.20;;;;;;;19.42;49.15;101072.06;4906752;28;119477;-65
2022/06/23 04:26:25;;;;;;;9.27;5.28;;;;;;;19.46;49.12;101065.50;4897227;28;124011;-65
2022/06/23 04:28:57;;;;;;;10.55;5.07;;;;;;;19.49;49.13;101067.91;4898214;28;124192;-65
2022/06/23 04:31:28;;;;;;;7.78;4.88;;;;;;;19.48;49.13;101076.97;4911818;28;118241;-65
2022/06/23 04:33:57;;;;;;;9.05;5.47;;;;;;;19.48;49.07;101074.28;4902317;28;119097;-65
2022/06/23 04:36:28;;;;;;;9.30;5.22;;;;;;;19.49;49.34;101070.59;4903192;28;124184;-65
2022/06/23 04:39:20;;;;;;;10.15;5.15;;;;;;;19.52;49.00;101078.44;4902267;28;123929;-65
2022/06/23 04:41:50;;;;;;;9.32;5.40;;;;;;;19.54;49.20;101076.47;4897992;28;119281;-65
2022/06/23 04:44:24;;;;;;;8.43;5.05;;;;;;;19.56;49.19;101077.22;4906907;28;119059;-65
2022/06/23 04:46:56;;;;;;;7.68;4.47;;;;;;;19.62;49.39;101076.72;4899588;28;124761;-65
2022/06/23 04:49:36;;;;;;;7.88;4.75;;;;;;;19.71;49.61;101074.28;4900595;28;123748;-65
2022/06/23 04:52:18;;;;;;;7.28;4.72;;;;;;;19.83;49.53;101067.94;4895623;28;119118;-65
2022/06/23 04:54:55;;;;;;;10.52;5.07;;;;;;;19.98;49.38;101066.69;4901685;28;119166;-65
2022/06/23 04:57:45;;;;;;;7.32;4.55;;;;;;;20.14;49.15;101065.47;4907937;28;123389;-65
2022/06/23 05:00:32;;;;;;;7.18;4.57;;;;;;;20.31;48.93;101070.31;4902017;28;123811;-66
2022/06/23 05:03:12;;;;;;;6.20;4.45;;;;;;;20.47;48.88;101074.41;4900889;28;120003;-66
2022/06/23 05:05:41;;;;;;;7.93;4.68;;;;;;;20.62;48.86;101070.47;4899744;28;118911;-66
2022/06/23 05:08:25;;;;;;;7.40;4.78;;;;;;;20.78;48.72;101070.88;4899786;28;124242;-66
2022/06/23 05:11:11;;;;;;;7.47;4.67;;;;;;;20.92;48.43;101068.84;4895927;28;124599;-65
2022/06/23 05:13:51;;;;;;;9.85;4.78;;;;;;;21.04;48.14;101070.50;4900654;28;120117;-65
2022/06/23 05:16:25;;;;;;;7.25;4.25;;;;;;;21.11;48.03;101077.06;4900515;28;119964;-65
2022/06/23 05:19:05;;;;;;;5.60;4.40;;;;;;;21.17;47.88;101071.16;4900830;28;124405;-65
2022/06/23 05:21:42;;;;;;;8.68;4.20;;;;;;;21.23;47.70;101063.50;4905299;28;123905;-65
2022/06/23 05:24:18;;;;;;;7.30;4.25;;;;;;;21.30;47.69;101070.09;4893230;28;119626;-65
2022/06/23 05:26:55;;;;;;;10.23;4.60;;;;;;;21.37;47.70;101068.56;4906903;28;119702;-66
2022/06/23 05:29:25;;;;;;;7.35;4.07;;;;;;;21.46;47.39;101069.66;4904532;28;124936;-66
2022/06/23 05:31:59;;;;;;;6.55;4.03;;;;;;;21.51;47.33;101062.88;4900409;28;123810;-65
2022/06/23 05:34:31;;;;;;;5.88;4.40;;;;;;;21.61;47.70;101072.84;4902078;28;119905;-64
2022/06/23 05:37:06;;;;;;;8.77;4.53;;;;;;;21.71;47.32;101062.94;4896523;28;119034;-65
2022/06/23 05:39:38;;;;;;;;;;;;;;;21.76;47.03;101063.38;4906106;28;124573;-65
2022/06/23 05:42:24;;;;;;;7.07;4.32;;;;;;;21.86;46.78;101061.56;4905054;28;125015;-64
2022/06/23 05:44:58;;;;;;;7.07;4.18;;;;;;;21.94;46.82;101075.22;4898556;28;119055;-65
2022/06/23 05:47:28;;;;;;;6.00;4.07;;;;;;;22.04;46.93;101066.28;4904330;28;119070;-65
2022/06/23 05:49:59;;;;;;;7.70;4.70;;;;;;;22.14;46.49;101064.47;4911079;28;123939;-65
2022/06/23 05:52:43;;;;;;;9.18;4.78;;;;;;;22.21;46.30;101060.25;4901448;28;125321;-65
2022/06/23 05:55:30;;;;;;;9.80;4.68;;;;;;;22.28;46.21;101064.13;4897232;28;120036;-65
2022/06/23 05:58:05;;;;;;;7.60;4.28;;;;;;;22.37;46.12;101066.97;4899644;28;118965;-65
2022/06/23 06:00:51;;;;;;;9.38;4.63;;;;;;;22.45;46.01;101061.69;4904253;28;123937;-64
2022/06/23 06:03:21;;;;;;;;;;;;;;;22.48;45.79;101064.13;4896732;28;124026;-64
2022/06/23 06:05:53;;;;;;;9.10;4.30;;;;;;;22.58;45.83;101067.66;4905053;28;120327;-66
2022/06/23 06:08:25;;;;;;;6.38;4.43;;;;;;;22.67;45.79;101066.81;4906213;28;119956;-66
2022/06/23 06:10:54;;;;;;;6.28;4.05;;;;;;;22.80;45.68;101065.69;4905693;28;124502;-65
2022/06/23 06:13:37;;;;;;;8.75;4.22;;;;;;;22.93;45.57;101067.09;4916136;28;122778;-66
2022/06/23 06:16:05;;;;;;;9.13;4.50;;;;;;;23.05;45.46;101067.81;4898962;28;119574;-68
2022/06/23 06:18:38;;;;;;;6.70;4.25;;;;;;;23.18;45.14;101058.53;4905067;28;118603;-65
2022/06/23 06:21:09;;;;;;;8.15;4.53;;;;;;;23.31;44.88;101069.88;4900390;28;124192;-66
2022/06/23 06:23:39;;;;;;;9.02;4.45;;;;;;;23.45;44.86;101066.72;4911159;28;122892;-65
2022/06/23 06:26:11;;;;;;;7.28;4.50;;;;;;;23.58;44.59;101071.78;4894083;28;119135;-65
2022/06/23 06:28:38;;;;;;;7.13;4.05;;;;;;;23.71;44.15;101066.03;4904746;28;118703;-65
2022/06/23 06:31:16;;;;;;;5.47;3.90;;;;;;;23.84;44.40;101066.56;4902201;28;123866;-65
2022/06/23 06:33:52;;;;;;;7.57;4.25;;;;;;;23.99;44.08;101057.94;4907740;28;123889;-65
2022/06/23 06:36:36;;;;;;;7.63;4.03;;;;;;;24.14;43.96;101051.00;4900785;28;119744;-65
2022/06/23 06:39:14;;;;;;;6.32;3.90;;;;;;;24.28;43.75;101058.63;4910110;28;119307;-64
2022/06/23 06:41:46;;;;;;;7.88;3.90;;;;;;;24.43;43.55;101061.66;4909045;28;123963;-65
2022/06/23 06:44:16;;;;;;;11.93;4.13;;;;;;;24.57;42.95;101062.97;4901182;28;122797;-65
2022/06/23 06:46:45;;;;;;;6.88;4.35;;;;;;;24.72;43.05;101055.16;4909900;28;119256;-65
2022/06/23 06:49:17;;;;;;;6.80;4.07;;;;;;;24.90;43.38;101063.25;4906516;28;120347;-65
2022/06/23 06:51:47;;;;;;;6.05;3.50;;;;;;;25.09;43.02;101062.22;4904450;28;124218;-65
2022/06/23 06:54:22;;;;;;;6.07;4.00;;;;;;;25.26;42.41;101057.78;4905367;28;125065;-65
2022/06/23 06:57:00;;;;;;;5.47;3.60;;;;;;;25.43;42.56;101065.00;4904612;28;120396;-65
2022/06/23 06:59:44;;;;;;;6.70;3.80;;;;;;;25.61;42.30;101061.38;4908542;28;120460;-65
2022/06/23 07:02:22;;;;;;;5.10;3.50;;;;;;;25.77;42.16;101061.44;4910449;28;124052;-65
2022/06/23 07:05:08;;;;;;;7.70;3.58;;;;;;;25.91;41.64;101061.81;4907491;28;124596;-65
2022/06/23 07:07:41;;;;;;;6.20;3.90;;;;;;;26.02;41.05;101064.28;4910351;28;120342;-65
2022/06/23 07:10:23;;;;;;;5.57;3.80;;;;;;;26.12;40.93;101059.53;4909077;28;119021;-65
2022/06/23 07:12:55;;;;;;;5.93;3.83;;;;;;;26.25;40.65;101052.78;4909240;28;124431;-65
2022/06/23 07:15:27;;;;;;;6.93;4.13;;;;;;;26.37;40.77;101055.03;4912420;28;123515;-65
2022/06/23 07:18:16;;;;;;;5.95;4.18;;;;;;;26.53;40.42;101056.91;4908746;28;120072;-65
2022/06/23 07:20:52;;;;;;;5.25;3.88;;;;;;;26.66;40.60;101055.59;4909502;28;119161;-65
2022/06/23 07:23:32;;;;;;;4.30;3.70;;;;;;;26.78;40.41;101048.78;4908746;28;123997;-65
2022/06/23 07:26:25;;;;;;;7.18;4.20;;;;;;;26.92;40.44;101056.25;4909971;28;123879;-65
2022/06/23 07:29:00;;;;;;;6.00;3.50;;;;;;;27.06;39.84;101067.47;4889938;28;119136;-65
2022/06/23 07:31:49;;;;;;;5.13;3.38;;;;;;;27.18;40.31;101066.06;4911782;28;118772;-65
2022/06/23 07:34:18;;;;;;;6.45;3.95;;;;;;;27.34;39.98;101059.78;4897301;28;124107;-65
2022/06/23 07:37:11;;;;;;;10.02;3.92;;;;;;;27.50;39.70;101067.03;4910645;28;123040;-65
2022/06/23 07:39:40;;;;;;;6.55;3.70;;;;;;;27.67;39.49;101055.09;4900306;28;119350;-65
2022/06/23 07:42:19;;;;;;;7.93;4.18;;;;;;;27.84;39.62;101071.34;4909103;28;119464;-65
2022/06/23 07:44:58;;;;;;;6.03;4.13;;;;;;;27.97;39.48;101063.47;4909015;28;124046;-65
2022/06/23 07:47:25;;;;;;;6.45;3.97;;;;;;;28.12;39.30;101061.72;4908786;28;123983;-65
2022/06/23 07:49:53;;;;;;;5.72;3.97;;;;;;;28.25;39.01;101061.09;4900644;28;121064;-65
2022/06/23 07:52:23;;;;;;;6.45;4.00;;;;;;;28.37;38.60;101061.56;4904912;28;119824;-65
2022/06/23 07:54:51;;;;;;;7.35;3.75;;;;;;;28.45;38.66;101053.31;4908960;28;124799;-65
2022/06/23 07:57:18;;;;;;;7.47;3.95;;;;;;;28.56;38.36;101059.38;4909662;28;124065;-65
2022/06/23 07:59:59;;;;;;;5.72;4.05;;;;;;;28.70;39.38;101050.44;4902982;28;119719;-65
2022/06/23 08:03:00;;;;;;;9.60;4.50;;;;;;;28.90;38.92;101048.03;4904779;28;118898;-65
2022/06/23 08:05:49;;;;;;;5.93;4.10;;;;;;;29.06;38.60;101050.59;4899037;28;124332;-65
2022/06/23 08:08:21;;;;;;;8.77;4.13;;;;;;;29.23;38.98;101040.38;4909492;28;124408;-65
2022/06/23 08:12:53;;;;;;;6.28;4.90;;;;;;;29.41;37.93;101050.09;4906587;28;119638;-65
2022/06/23 08:13:43;;;;;;;7.82;5.07;;;;;;;29.53;37.72;101045.03;4904373;28;119024;-65
2022/06/23 08:19:11;;;;;;;5.80;4.65;;;;;;;29.70;38.07;101041.03;4907868;28;123949;-65
2022/06/23 08:22:10;;;;;;;6.85;4.60;;;;;;;29.78;38.24;101031.91;4900977;28;119257;-65
2022/06/23 08:24:38;;;;;;;6.07;4.60;;;;;;;29.92;37.77;101036.53;4896753;28;119606;-65
2022/06/23 08:27:13;;;;;;;10.75;4.38;;;;;;;30.04;37.44;101037.69;4909245;28;124586;-65
2022/06/23 08:29:45;;;;;;;6.20;4.45;;;;;;;30.16;37.62;101039.91;4898433;28;123705;-65
2022/06/23 08:32:13;;;;;;;7.55;5.22;;;;;;;30.26;37.42;101024.06;4908537;28;120027;-65
2022/06/23 08:34:48;;;;;;;6.97;4.80;;;;;;;30.37;37.60;101031.78;4907660;28;118878;-65
2022/06/23 08:37:19;;;;;;;9.40;4.78;;;;;;;30.51;37.20;101031.91;4923966;28;124068;-65
2022/06/23 08:40:05;;;;;;;6.40;4.57;;;;;;;30.59;37.00;101031.75;4909045;28;123978;-66
2022/06/23 08:42:51;;;;;;;6.88;4.15;;;;;;;30.70;37.68;101031.22;4907894;28;120759;-65
2022/06/23 08:45:26;;;;;;;6.70;4.30;;;;;;;30.85;37.85;101033.88;4908116;28;120449;-65
2022/06/23 08:48:04;;;;;;;11.05;5.90;;;;;;;31.02;36.65;101039.94;4907190;28;124056;-65
2022/06/23 08:50:41;;;;;;;8.52;4.50;;;;;;;31.14;36.70;101038.34;4910887;28;124571;-65
2022/06/23 08:53:21;;;;;;;7.22;4.57;;;;;;;31.22;36.36;101049.13;4908313;28;119886;-66
2022/06/23 08:56:03;;;;;;;8.02;5.18;;;;;;;31.27;35.98;101044.94;4908238;28;118871;-65
2022/06/23 08:58:47;;;;;;;8.05;5.10;;;;;;;31.30;36.54;101042.66;4897769;28;124750;-66
2022/06/23 09:01:25;;;;;;;6.80;4.20;;;;;;;31.36;36.54;101035.53;4910294;28;123914;-65
2022/06/23 09:04:07;;;;;;;9.18;4.97;;;;;;;31.42;36.36;101029.25;4907993;28;119376;-66
2022/06/23 09:06:43;;;;;;;6.75;4.65;;;;;;;31.51;36.54;101028.06;4908537;28;118952;-66
2022/06/23 09:09:29;;;;;;;9.73;5.30;;;;;;;31.65;36.13;101022.63;4907806;28;122833;-65
2022/06/23 09:12:06;;;;;;;6.20;4.63;;;;;;;31.71;36.32;101022.69;4898029;28;123910;-65
2022/06/23 09:15:07;;;;;;;6.88;4.38;;;;;;;31.77;36.41;101021.00;4907595;28;119294;-65
2022/06/23 09:18:09;;;;;;;10.88;5.68;;;;;;;31.84;35.97;101021.88;4909618;28;118941;-66
2022/06/23 09:20:53;;;;;;;8.48;4.78;;;;;;;31.87;35.92;101018.72;4891660;28;123894;-65
2022/06/23 09:24:00;;;;;;;7.00;4.38;;;;;;;31.90;35.96;101012.84;4907045;28;124066;-65
2022/06/23 09:26:40;;;;;;;8.07;4.72;;;;;;;31.97;35.95;101010.97;4905793;28;119184;-65
2022/06/23 09:29:18;;;;;;;7.80;4.93;;;;;;;32.07;35.72;101015.25;4908392;28;119625;-65
2022/06/23 09:32:04;;;;;;;6.43;4.53;;;;;;;32.15;36.06;101006.81;4905135;28;123298;-66
2022/06/23 09:34:58;;;;;;;9.20;4.82;;;;;;;32.20;35.90;100998.81;4898708;28;123799;-66
2022/06/23 09:37:35;;;;;;;8.38;4.85;;;;;;;32.22;35.83;101002.19;4906115;28;120271;-66
2022/06/23 09:40:16;;;;;;;9.55;5.40;;;;;;;32.26;35.67;100997.97;4897773;28;120023;-66
2022/06/23 09:43:02;;;;;;;7.75;4.43;;;;;;;32.34;36.47;101000.53;4898741;28;98684;-66
2022/06/23 09:45:48;;;;;;;10.50;4.72;;;;;;;32.47;35.72;100993.34;4892378;28;124992;-66
2022/06/23 09:48:34;;;;;;;7.25;3.80;;;;;;;32.54;35.81;100988.72;4899302;28;119152;-66
2022/06/23 09:51:13;;;;;;;5.65;3.42;;;;;;;32.62;36.11;100985.78;4903890;28;118009;-66
2022/06/23 09:54:21;;;;;;;7.40;3.42;;;;;;;32.74;36.25;100984.09;4905761;28;124097;-66
2022/06/23 09:57:11;;;;;;;7.22;3.08;;;;;;;32.86;35.72;100986.22;4917946;28;123408;-66
2022/06/23 09:59:38;;;;;;;7.68;2.95;;;;;;;32.95;35.29;100985.75;4901046;28;118718;-67
2022/06/23 10:02:20;;;;;;;8.73;3.15;;;;;;;33.11;35.19;100983.66;4903612;28;118741;-67
2022/06/23 10:05:03;;;;;;;5.35;3.00;;;;;;;33.23;34.95;100981.94;4905507;28;124641;-66
2022/06/23 10:07:42;;;;;;;6.07;2.55;;;;;;;33.32;35.28;100985.28;4916175;28;123424;-66
2022/06/23 10:10:33;;;;;;;4.97;2.28;;;;;;;33.41;35.30;100978.47;4895533;28;119362;-67
2022/06/23 10:13:13;;;;;;;5.95;2.38;;;;;;;33.58;35.25;100975.25;4914827;28;118282;-67
2022/06/23 10:15:56;;;;;;;7.03;2.50;;;;;;;33.72;34.67;100975.00;4901753;28;123905;-66
2022/06/23 10:19:04;;;;;;;7.40;2.40;;;;;;;33.86;34.06;100969.44;4892686;28;123933;-66
2022/06/23 10:21:54;;;;;;;5.75;2.30;;;;;;;33.94;33.94;100971.91;4893274;28;119542;-67
2022/06/23 10:24:28;;;;;;;8.57;2.22;;;;;;;34.02;33.57;100974.41;4895193;28;119276;-66
2022/06/23 10:27:02;;;;;;;5.60;2.40;;;;;;;34.06;33.57;100972.06;4899099;28;123991;-67
2022/06/23 10:30:06;;;;;;;5.03;2.30;;;;;;;34.07;33.30;100970.97;4898199;28;123944;-67
2022/06/23 10:32:59;;;;;;;8.20;2.40;;;;;;;34.11;33.18;100955.72;4894512;28;120353;-66
2022/06/23 10:35:46;;;;;;;6.60;2.20;;;;;;;34.15;33.50;100962.44;4896037;28;119775;-67
2022/06/23 10:38:34;;;;;;;5.65;2.00;;;;;;;34.17;33.41;100949.38;4894068;28;124572;-66
2022/06/23 10:41:16;;;;;;;5.10;1.92;;;;;;;34.21;32.93;100945.13;4897299;28;123836;-67
2022/06/23 10:43:56;;;;;;;7.57;2.30;;;;;;;34.27;33.01;100949.72;4901788;28;120413;-67
2022/06/23 10:46:44;;;;;;;5.72;1.90;;;;;;;34.37;32.59;100948.38;4897323;28;118751;-67
2022/06/23 10:49:40;;;;;;;7.05;2.20;;;;;;;34.48;32.82;100947.66;4908206;28;124120;-66
2022/06/23 10:52:27;;;;;;;5.00;2.30;;;;;;;34.58;32.51;100942.47;4908813;28;123599;-67
2022/06/23 10:55:17;;;;;;;9.23;2.50;;;;;;;34.66;32.43;100942.19;4897473;28;119184;-66
2022/06/23 10:58:02;;;;;;;4.70;2.30;;;;;;;34.77;32.30;100948.03;4894677;28;119922;-66
2022/06/23 11:00:39;;;;;;;6.72;2.40;;;;;;;34.73;32.20;100933.06;4897742;28;123928;-67
2022/06/23 11:03:33;;;;;;;5.20;2.25;;;;;;;34.71;32.31;100933.28;4902832;28;122720;-67
2022/06/23 11:06:12;;;;;;;5.00;2.40;;;;;;;34.75;32.56;100939.16;4897781;28;119509;-67
2022/06/23 11:09:02;;;;;;;6.43;2.50;;;;;;;34.71;32.22;100934.09;4899793;28;120534;-67
2022/06/23 11:11:52;;;;;;;5.93;2.40;;;;;;;34.73;32.98;100935.81;4892060;28;124406;-67
2022/06/23 11:14:41;;;;;;;7.15;2.67;;;;;;;34.78;33.09;100933.22;4898319;28;124569;-67
2022/06/23 11:17:24;;;;;;;7.20;2.75;;;;;;;34.84;32.70;100935.88;4892485;28;119121;-67
2022/06/23 11:19:57;;;;;;;5.10;2.42;;;;;;;34.86;32.36;100935.66;4906053;28;118249;-67
2022/06/23 11:22:30;;;;;;;4.40;2.55;;;;;;;34.82;32.25;100939.94;4893791;28;123976;-67
2022/06/23 11:25:21;;;;;;;6.80;2.83;;;;;;;34.80;32.31;100936.56;4893513;28;123735;-67
2022/06/23 11:28:25;;;;;;;4.20;2.28;;;;;;;34.88;32.37;100933.53;4895306;28;119990;-66
2022/06/23 11:31:12;;;;;;;7.45;2.60;;;;;;;34.95;32.24;100945.31;4894110;28;121406;-67
2022/06/23 11:34:07;;;;;;;7.55;2.70;;;;;;;35.01;31.76;100927.88;4896420;28;125076;-66
2022/06/23 11:36:45;;;;;;;;;;;;;;;35.06;32.44;100940.97;4893000;28;123930;-67
2022/06/23 11:39:12;;;;;;;4.97;2.28;;;;;;;35.16;31.87;100932.16;4906186;28;118515;-67
2022/06/23 11:42:07;;;;;;;6.30;2.38;;;;;;;35.21;31.67;100932.34;4892769;28;118218;-67
2022/06/23 11:44:56;;;;;;;6.30;2.63;;;;;;;35.25;31.87;100922.53;4897102;28;124901;-67
2022/06/23 11:47:45;;;;;;;5.78;2.65;;;;;;;35.34;31.86;100915.66;4896033;28;124125;-67
2022/06/23 11:50:28;;;;;;;6.00;2.60;;;;;;;35.45;31.89;100917.63;4897419;28;119716;-67
2022/06/23 11:52:58;;;;;;;6.50;2.53;;;;;;;35.54;31.36;100914.53;4903451;28;119624;-66
2022/06/23 11:55:46;;;;;;;6.03;2.20;;;;;;;35.59;31.31;100912.75;4901444;28;124621;-66
2022/06/23 11:58:32;;;;;;;5.43;2.17;;;;;;;35.67;31.28;100915.16;4900565;28;125040;-66
2022/06/23 12:01:15;;;;;;;6.00;2.60;;;;;;;35.78;31.13;100921.84;4904130;28;119462;-67
2022/06/23 12:04:21;;;;;;;6.28;2.63;;;;;;;35.81;31.02;100918.63;4904121;28;119074;-67
2022/06/23 12:07:26;;;;;;;7.13;2.63;;;;;;;35.84;31.12;100909.84;4910680;28;123765;-67
2022/06/23 12:10:13;;;;;;;5.20;2.40;;;;;;;35.85;30.72;100906.03;4909518;28;123957;-67
2022/06/23 12:12:46;;;;;;;6.60;2.60;;;;;;;35.88;30.46;100901.97;4908718;28;119367;-67
2022/06/23 12:15:17;;;;;;;6.45;2.83;;;;;;;35.92;29.96;100905.91;4905065;28;119099;-67
2022/06/23 12:17:52;;;;;;;5.40;2.83;;;;;;;35.89;30.37;100900.06;4899712;28;124756;-66
2022/06/23 12:20:26;;;;;;;9.07;2.70;;;;;;;35.86;29.97;100907.69;4910791;28;123852;-66
2022/06/23 12:23:29;;;;;;;6.50;2.97;;;;;;;35.74;30.01;100909.59;4908183;28;120468;-67
2022/06/23 12:26:08;;;;;;;10.65;2.78;;;;;;;35.59;29.86;100901.72;4908557;28;119960;-67